Portada
METAR-TAF:

METAR-TAF

Aeroports :

Yonaguni, Japó

latitud: 24-28N, longitud: 122-59E, altitud: 16 m

Observació

L'informe es va fer fa 16 minuts, a les 00:00 UTC
Vent 10 kt del Sud, variant entre Est/Sud-Est i Sud/Sud-Oest
Temperatura 31°C
Humitat 79%
Pressió 1007 hPa
Visibilitat 10 km o més
Escasses núvols a una alçada de 1900 ft
Núvols disperses a una alçada de 3400 ft

METAR: ROYN 150000Z AUTO 17010KT 120V200 9999 FEW019 SCT034 31/27 Q1007

Hora: 09:16 (00:16 UTC)


TAF: manca

Observacions i pronòstics meteorològics de més de 4000 aeroports (METAR i TAF).

Les estacions disponibles són els punts grocs i vermells al mapa.

Posi el ratolí al punt desitjat per veure el nom de l'estació.

Feu clic per veure les observacions i els pronòstics meteorològics.

Per canviar el mapa: feu clic els botons verds amb una creu de color negre per apropar; al botó verd amb un guió per allunyar la imatge; o en les fletxes verdes per a mapes adjacents.


METAR-TAF: